createdAt,value
2023-04-23T00:00:37.217Z,2.30
2023-04-23T00:03:13.277Z,2.10
2023-04-23T00:05:45.031Z,2.20
2023-04-23T00:08:21.858Z,2.28
2023-04-23T00:10:51.611Z,2.05
2023-04-23T00:13:21.026Z,2.40
2023-04-23T00:15:52.425Z,2.28
2023-04-23T00:18:21.453Z,1.92
2023-04-23T00:20:51.180Z,2.00
2023-04-23T00:23:21.484Z,2.10
2023-04-23T00:25:50.861Z,2.50
2023-04-23T00:28:22.091Z,2.08
2023-04-23T00:30:51.534Z,1.75
2023-04-23T00:33:20.947Z,2.40
2023-04-23T00:35:50.122Z,2.33
2023-04-23T00:38:21.106Z,2.20
2023-04-23T00:40:51.628Z,2.40
2023-04-23T00:43:21.267Z,1.92
2023-04-23T00:45:53.495Z,3.55
2023-04-23T00:48:23.410Z,2.83
2023-04-23T00:50:59.771Z,2.20
2023-04-23T00:53:30.216Z,2.20
2023-04-23T00:56:03.035Z,2.30
2023-04-23T00:58:32.866Z,2.40
2023-04-23T01:01:04.552Z,2.35
2023-04-23T01:03:36.506Z,2.30
2023-04-23T01:06:06.445Z,2.45
2023-04-23T01:08:36.483Z,2.35
2023-04-23T01:11:07.544Z,2.35
2023-04-23T01:13:36.859Z,2.83
2023-04-23T01:16:06.193Z,2.25
2023-04-23T01:18:36.116Z,2.80
2023-04-23T01:21:07.296Z,2.78
2023-04-23T01:23:37.893Z,2.55
2023-04-23T01:26:07.532Z,2.38
2023-04-23T01:28:36.788Z,2.33
2023-04-23T01:31:06.245Z,2.50
2023-04-23T01:33:36.090Z,3.10
2023-04-23T01:36:08.600Z,2.65
2023-04-23T01:38:41.031Z,2.60
2023-04-23T01:41:10.653Z,2.60
2023-04-23T01:43:43.320Z,2.83
2023-04-23T01:46:13.234Z,2.80
2023-04-23T01:48:43.637Z,2.50
2023-04-23T01:51:12.793Z,2.60
2023-04-23T01:53:43.129Z,2.45
2023-04-23T01:56:13.525Z,2.55
2023-04-23T01:58:45.561Z,2.63
2023-04-23T02:01:14.741Z,2.60
2023-04-23T02:03:44.417Z,2.97
2023-04-23T02:06:14.032Z,2.65
2023-04-23T02:08:44.813Z,2.40
2023-04-23T02:11:13.938Z,3.45
2023-04-23T02:13:43.441Z,3.22
2023-04-23T02:16:13.301Z,2.92
2023-04-23T02:18:42.661Z,2.72
2023-04-23T02:21:13.302Z,3.45
2023-04-23T02:23:42.350Z,2.70
2023-04-23T02:26:12.972Z,3.38
2023-04-23T02:28:42.211Z,3.03
2023-04-23T02:31:11.468Z,2.90
2023-04-23T02:33:42.740Z,3.03
2023-04-23T02:36:12.374Z,2.90
2023-04-23T02:38:44.916Z,3.08
2023-04-23T02:41:15.993Z,2.83
2023-04-23T02:43:45.137Z,3.30
2023-04-23T02:46:14.460Z,2.40
2023-04-23T02:48:46.127Z,3.05
2023-04-23T02:51:15.850Z,3.28
2023-04-23T02:53:45.001Z,3.17
2023-04-23T02:56:15.685Z,2.78
2023-04-23T02:58:44.809Z,2.72
2023-04-23T03:01:14.622Z,3.15
2023-04-23T03:03:44.348Z,3.33
2023-04-23T03:06:13.756Z,3.42
2023-04-23T03:08:43.002Z,3.47
2023-04-23T03:11:12.172Z,2.97
2023-04-23T03:13:42.914Z,3.13
2023-04-23T03:16:12.111Z,3.15
2023-04-23T03:18:41.668Z,3.10
2023-04-23T03:21:10.761Z,2.72
2023-04-23T03:23:40.072Z,3.03
2023-04-23T03:26:09.308Z,3.28
2023-04-23T03:28:38.587Z,3.13
2023-04-23T03:31:09.432Z,3.20
2023-04-23T03:33:38.583Z,3.60
2023-04-23T03:36:07.999Z,3.33
2023-04-23T03:38:37.033Z,3.67
2023-04-23T03:41:07.374Z,3.40
2023-04-23T03:43:36.903Z,4.07
2023-04-23T03:46:06.736Z,3.55
2023-04-23T03:48:41.680Z,3.42
2023-04-23T03:51:24.984Z,3.97
2023-04-23T03:53:53.988Z,3.45
2023-04-23T03:56:37.621Z,3.30
2023-04-23T03:59:20.665Z,3.60
2023-04-23T04:01:51.815Z,3.22
2023-04-23T04:04:22.565Z,3.05
2023-04-23T04:06:52.965Z,3.30
2023-04-23T04:09:22.183Z,3.65
2023-04-23T04:11:52.866Z,3.13
2023-04-23T04:14:22.868Z,4.07
2023-04-23T04:16:52.045Z,3.28
2023-04-23T04:19:23.069Z,3.95
2023-04-23T04:21:52.408Z,3.35
2023-04-23T04:24:24.934Z,3.25
2023-04-23T04:26:55.245Z,3.33
2023-04-23T04:29:25.492Z,2.53
2023-04-23T04:31:57.285Z,3.10
2023-04-23T04:34:28.058Z,2.75
2023-04-23T04:36:57.620Z,3.22
2023-04-23T04:39:27.079Z,3.08
2023-04-23T04:41:57.564Z,3.88
2023-04-23T04:44:28.162Z,2.75
2023-04-23T04:46:57.819Z,2.75
2023-04-23T04:49:28.484Z,2.97
2023-04-23T04:51:57.718Z,2.58
2023-04-23T04:54:27.079Z,2.88
2023-04-23T04:56:56.440Z,2.80
2023-04-23T04:59:25.693Z,2.72
2023-04-23T05:01:55.030Z,2.60
2023-04-23T05:04:24.428Z,2.78
2023-04-23T05:06:57.408Z,2.63
2023-04-23T05:09:27.678Z,2.90
2023-04-23T05:11:56.979Z,2.53
2023-04-23T05:14:27.524Z,3.22
2023-04-23T05:16:56.702Z,2.40
2023-04-23T05:19:25.913Z,2.40
2023-04-23T05:21:56.718Z,2.50
2023-04-23T05:24:26.619Z,2.65
2023-04-23T05:26:56.845Z,2.72
2023-04-23T05:29:26.136Z,2.28
2023-04-23T05:31:57.206Z,2.70
2023-04-23T05:34:27.210Z,2.10
2023-04-23T05:37:03.512Z,2.38
2023-04-23T05:39:32.711Z,2.42
2023-04-23T05:42:06.301Z,2.38
2023-04-23T05:44:39.207Z,3.40
2023-04-23T05:47:09.315Z,2.50
2023-04-23T05:49:38.978Z,2.65
2023-04-23T05:52:09.764Z,2.90
2023-04-23T05:54:39.097Z,3.15
2023-04-23T05:57:08.649Z,2.92
2023-04-23T05:59:38.427Z,4.10
2023-04-23T06:02:08.824Z,2.92
2023-04-23T06:04:38.493Z,3.38
2023-04-23T06:07:09.527Z,3.30
2023-04-23T06:09:38.909Z,3.35
2023-04-23T06:12:09.225Z,3.10
2023-04-23T06:14:39.471Z,3.40
2023-04-23T06:17:09.083Z,3.35
2023-04-23T06:19:45.828Z,3.28
2023-04-23T06:22:27.580Z,3.47
2023-04-23T06:24:57.822Z,3.28
2023-04-23T06:27:28.100Z,3.33
2023-04-23T06:30:02.221Z,2.97
2023-04-23T06:32:37.022Z,3.03
2023-04-23T06:35:09.502Z,3.13
2023-04-23T06:37:45.360Z,3.00
2023-04-23T06:40:16.111Z,3.58
2023-04-23T06:43:08.305Z,3.15
2023-04-23T06:46:02.431Z,3.13
2023-04-23T06:48:32.696Z,3.38
2023-04-23T06:51:02.421Z,3.22
2023-04-23T06:53:33.171Z,3.10
2023-04-23T06:56:02.306Z,3.72
2023-04-23T06:58:41.397Z,3.63
2023-04-23T07:01:20.731Z,3.50
2023-04-23T07:03:52.541Z,3.42
2023-04-23T07:06:23.747Z,3.83
2023-04-23T07:08:54.781Z,3.50
2023-04-23T07:11:29.729Z,3.80
2023-04-23T07:14:00.121Z,3.63
2023-04-23T07:16:33.556Z,3.63
2023-04-23T07:19:03.363Z,3.85
2023-04-23T07:21:33.161Z,3.80
2023-04-23T07:24:07.004Z,3.72
2023-04-23T07:26:39.758Z,3.90
2023-04-23T07:29:10.704Z,3.58
2023-04-23T07:31:42.097Z,3.78
2023-04-23T07:34:14.397Z,3.88
2023-04-23T07:36:46.671Z,4.65
2023-04-23T07:39:17.267Z,4.63
2023-04-23T07:41:50.313Z,4.00
2023-04-23T07:44:19.775Z,3.85
2023-04-23T07:46:58.858Z,3.55
2023-04-23T07:53:51.211Z,3.67
2023-04-23T07:56:22.656Z,3.50
2023-04-23T07:58:55.967Z,3.20
2023-04-23T08:01:25.510Z,3.35
2023-04-23T08:03:59.404Z,3.25
2023-04-23T08:06:30.077Z,2.80
2023-04-23T08:09:00.421Z,2.92
2023-04-23T08:11:33.498Z,2.67
2023-04-23T08:14:07.308Z,2.50
2023-04-23T08:16:39.131Z,2.70
2023-04-23T08:19:11.694Z,2.67
2023-04-23T08:21:42.341Z,1.98
2023-04-23T08:24:19.112Z,2.30
2023-04-23T08:26:50.072Z,2.00
2023-04-23T08:29:18.820Z,1.55
2023-04-23T08:31:48.019Z,1.83
2023-04-23T08:34:17.995Z,2.00
2023-04-23T08:36:53.192Z,2.13
2023-04-23T08:39:24.301Z,1.80
2023-04-23T08:41:56.765Z,2.35
2023-04-23T08:44:27.588Z,2.33
2023-04-23T08:47:02.747Z,2.30
2023-04-23T08:49:35.709Z,2.25
2023-04-23T08:52:18.425Z,1.85
2023-04-23T08:54:53.976Z,2.75
2023-04-23T08:57:26.537Z,2.60
2023-04-23T08:59:57.379Z,2.35
2023-04-23T09:02:27.003Z,2.38
2023-04-23T09:04:58.951Z,2.30
2023-04-23T09:07:30.443Z,2.20
2023-04-23T09:10:00.381Z,1.98
2023-04-23T09:12:31.321Z,1.80
2023-04-23T09:15:01.028Z,2.08
2023-04-23T09:17:34.423Z,2.08
2023-04-23T09:20:14.180Z,1.85
2023-04-23T09:22:46.781Z,1.98
2023-04-23T09:27:50.681Z,2.00
2023-04-23T09:30:21.043Z,2.60
2023-04-23T09:32:50.993Z,2.13
2023-04-23T09:35:39.019Z,2.15
2023-04-23T09:38:15.716Z,2.03
2023-04-23T09:40:45.867Z,2.38
2023-04-23T09:43:17.129Z,2.08
2023-04-23T09:45:54.631Z,1.77
2023-04-23T09:48:43.502Z,1.92
2023-04-23T09:51:17.460Z,1.67
2023-04-23T09:53:51.365Z,2.03
2023-04-23T09:56:27.372Z,1.55
2023-04-23T09:59:32.493Z,1.50
2023-04-23T10:02:09.899Z,1.75
2023-04-23T10:04:46.582Z,2.05
2023-04-23T10:07:24.530Z,1.90
2023-04-23T10:09:53.843Z,1.80
2023-04-23T10:12:41.011Z,1.60
2023-04-23T10:15:44.243Z,1.85
2023-04-23T10:18:18.564Z,2.17
2023-04-23T10:20:52.021Z,1.85
2023-04-23T10:23:23.345Z,2.05
2023-04-23T10:25:57.051Z,1.95
2023-04-23T10:28:32.192Z,1.98
2023-04-23T10:31:05.099Z,1.70
2023-04-23T10:36:29.100Z,2.40
2023-04-23T10:39:04.011Z,2.10
2023-04-23T10:41:37.769Z,1.98
2023-04-23T10:44:07.354Z,2.28
2023-04-23T10:46:39.388Z,3.45
2023-04-23T10:49:14.411Z,2.20
2023-04-23T10:54:21.018Z,2.20
2023-04-23T10:57:12.150Z,2.00
2023-04-23T10:59:43.486Z,2.22
2023-04-23T11:02:15.064Z,1.98
2023-04-23T11:04:49.123Z,2.10
2023-04-23T11:07:27.326Z,1.92
2023-04-23T11:10:00.181Z,2.45
2023-04-23T11:12:36.158Z,1.88
2023-04-23T11:15:13.725Z,2.10
2023-04-23T11:18:03.494Z,2.00
2023-04-23T11:20:33.107Z,2.03
2023-04-23T11:23:06.156Z,2.30
2023-04-23T11:28:07.918Z,2.15
2023-04-23T11:30:39.619Z,2.20
2023-04-23T11:33:13.428Z,2.28
2023-04-23T11:35:45.275Z,2.20
2023-04-23T11:38:27.572Z,2.22
2023-04-23T11:41:00.329Z,2.00
2023-04-23T11:43:30.864Z,2.10
2023-04-23T11:46:08.472Z,2.42
2023-04-23T11:48:39.087Z,2.17
2023-04-23T11:51:11.238Z,2.22
2023-04-23T11:53:47.760Z,2.05
2023-04-23T11:56:24.087Z,1.98
2023-04-23T11:59:01.250Z,2.13
2023-04-23T12:01:45.958Z,2.00
2023-04-23T12:04:18.567Z,2.03
2023-04-23T12:06:53.122Z,1.80
2023-04-23T12:09:31.489Z,2.13
2023-04-23T12:12:01.306Z,2.30
2023-04-23T12:14:33.306Z,1.90
2023-04-23T12:17:11.920Z,2.10
2023-04-23T12:19:46.101Z,1.75
2023-04-23T12:22:16.026Z,2.22
2023-04-23T12:24:53.709Z,2.13
2023-04-23T12:27:23.365Z,2.85
2023-04-23T12:30:07.886Z,2.63
2023-04-23T12:32:38.759Z,2.22
2023-04-23T12:35:14.580Z,2.15
2023-04-23T12:37:45.525Z,2.15
2023-04-23T12:40:21.991Z,2.03
2023-04-23T12:42:51.728Z,1.85
2023-04-23T12:45:20.761Z,1.92
2023-04-23T12:47:50.063Z,2.00
2023-04-23T12:50:21.121Z,2.10
2023-04-23T12:52:51.474Z,2.13
2023-04-23T12:55:24.272Z,1.70
2023-04-23T12:57:59.729Z,1.95
2023-04-23T13:00:29.662Z,1.48
2023-04-23T13:02:59.517Z,2.10
2023-04-23T13:05:30.810Z,2.00
2023-04-23T13:08:00.193Z,2.50
2023-04-23T13:10:31.056Z,1.73
2023-04-23T13:13:00.377Z,2.03
2023-04-23T13:15:32.813Z,1.50
2023-04-23T13:18:02.458Z,1.50
2023-04-23T13:20:35.453Z,1.63
2023-04-23T13:23:04.677Z,1.70
2023-04-23T13:25:35.079Z,1.52
2023-04-23T13:28:04.313Z,1.75
2023-04-23T13:30:36.527Z,1.48
2023-04-23T13:33:06.158Z,1.60
2023-04-23T13:35:56.134Z,1.70
2023-04-23T13:38:38.810Z,1.40
2023-04-23T13:41:08.665Z,1.67
2023-04-23T13:43:38.182Z,1.60
2023-04-23T13:46:08.372Z,1.45
2023-04-23T13:48:38.086Z,1.52
2023-04-23T13:51:21.842Z,1.73
2023-04-23T13:54:02.468Z,2.20
2023-04-23T13:56:32.524Z,2.20
2023-04-23T13:59:18.347Z,1.90
2023-04-23T14:01:50.276Z,1.92
2023-04-23T14:04:20.271Z,1.73
2023-04-23T14:06:51.259Z,1.90
2023-04-23T14:09:22.676Z,1.70
2023-04-23T14:11:52.241Z,1.75
2023-04-23T14:14:21.424Z,1.92
2023-04-23T14:16:51.474Z,1.80
2023-04-23T14:19:20.930Z,1.80
2023-04-23T14:21:51.438Z,1.90
2023-04-23T14:24:28.813Z,2.00
2023-04-23T14:26:58.013Z,2.00
2023-04-23T14:33:11.945Z,1.75
2023-04-23T14:35:54.635Z,1.70
2023-04-23T14:38:26.693Z,2.00
2023-04-23T14:40:57.804Z,1.70
2023-04-23T14:43:27.289Z,1.40
2023-04-23T14:45:56.893Z,1.80
2023-04-23T14:48:26.746Z,1.92
2023-04-23T14:50:55.848Z,1.52
2023-04-23T14:53:26.440Z,1.42
2023-04-23T14:55:56.136Z,2.05
2023-04-23T14:58:25.362Z,1.50
2023-04-23T15:00:54.480Z,1.65
2023-04-23T15:03:23.998Z,1.83
2023-04-23T15:05:53.635Z,1.70
2023-04-23T15:08:23.362Z,1.67
2023-04-23T15:10:54.196Z,1.90
2023-04-23T15:13:40.274Z,1.70
2023-04-23T15:16:28.362Z,2.03
2023-04-23T15:19:07.547Z,1.85
2023-04-23T15:21:36.896Z,1.98
2023-04-23T15:24:07.949Z,2.08
2023-04-23T15:26:39.350Z,1.95
2023-04-23T15:29:10.107Z,1.90
2023-04-23T15:31:39.801Z,1.63
2023-04-23T15:34:09.716Z,1.75
2023-04-23T15:36:39.014Z,1.63
2023-04-23T15:39:08.717Z,2.03
2023-04-23T15:41:40.966Z,1.65
2023-04-23T15:44:13.009Z,1.85
2023-04-23T15:46:42.375Z,1.95
2023-04-23T15:49:11.622Z,2.00
2023-04-23T15:51:40.817Z,1.83
2023-04-23T15:54:10.825Z,1.90
2023-04-23T15:56:41.748Z,2.00
2023-04-23T15:59:10.930Z,1.90
2023-04-23T16:01:40.338Z,2.17
2023-04-23T16:04:11.486Z,1.85
2023-04-23T16:06:40.913Z,1.80
2023-04-23T16:09:13.449Z,2.08
2023-04-23T16:11:44.247Z,2.00
2023-04-23T16:14:13.377Z,2.30
2023-04-23T16:16:42.725Z,2.05
2023-04-23T16:19:12.200Z,2.05
2023-04-23T16:21:41.637Z,2.15
2023-04-23T16:24:10.752Z,2.10
2023-04-23T16:26:40.391Z,1.95
2023-04-23T16:29:21.411Z,1.75
2023-04-23T16:31:51.932Z,1.98
2023-04-23T16:34:23.626Z,2.08
2023-04-23T16:36:52.955Z,2.22
2023-04-23T16:39:22.132Z,2.17
2023-04-23T16:41:51.523Z,2.15
2023-04-23T16:44:22.203Z,2.10
2023-04-23T16:46:51.716Z,1.90
2023-04-23T16:49:22.428Z,1.73
2023-04-23T16:52:12.540Z,2.30
2023-04-23T16:54:41.706Z,2.00
2023-04-23T16:57:11.591Z,1.67
2023-04-23T16:59:42.048Z,2.70
2023-04-23T17:02:11.525Z,2.85
2023-04-23T17:04:41.416Z,2.50
2023-04-23T17:07:11.620Z,2.72
2023-04-23T17:09:40.734Z,2.58
2023-04-23T17:12:09.687Z,2.30
2023-04-23T17:14:38.941Z,2.28
2023-04-23T17:17:26.532Z,2.83
2023-04-23T17:19:56.040Z,2.58
2023-04-23T17:22:25.817Z,2.97
2023-04-23T17:24:54.870Z,2.55
2023-04-23T17:27:24.205Z,2.85
2023-04-23T17:29:53.280Z,2.70
2023-04-23T17:32:23.995Z,3.28
2023-04-23T17:35:06.361Z,2.78
2023-04-23T17:37:38.325Z,2.67
2023-04-23T17:40:09.846Z,2.83
2023-04-23T17:42:39.586Z,3.40
2023-04-23T17:45:10.156Z,3.80
2023-04-23T17:47:41.052Z,4.18
2023-04-23T17:50:13.821Z,2.97
2023-04-23T17:52:45.331Z,3.30
2023-04-23T17:55:14.685Z,3.22
2023-04-23T17:57:46.528Z,3.10
2023-04-23T18:00:17.644Z,3.05
2023-04-23T18:02:50.809Z,2.95
2023-04-23T18:05:20.621Z,2.95
2023-04-23T18:07:49.952Z,3.80
2023-04-23T18:10:19.285Z,3.63
2023-04-23T18:12:48.761Z,3.22
2023-04-23T18:15:18.038Z,3.28
2023-04-23T18:17:48.592Z,5.05
2023-04-23T18:20:18.100Z,5.65
2023-04-23T18:22:48.228Z,4.07
2023-04-23T18:25:17.642Z,3.13
2023-04-23T18:27:46.925Z,3.70
2023-04-23T18:30:16.540Z,4.82
2023-04-23T18:32:50.848Z,4.57
2023-04-23T18:35:21.153Z,4.15
2023-04-23T18:37:55.801Z,4.32
2023-04-23T18:40:28.219Z,28.98
2023-04-23T18:42:57.750Z,6.03
2023-04-23T18:45:27.085Z,5.68
2023-04-23T18:48:06.290Z,4.78
2023-04-23T18:50:44.260Z,5.03
2023-04-23T18:53:15.185Z,3.78
2023-04-23T18:55:46.671Z,4.15
2023-04-23T18:58:15.964Z,5.53
2023-04-23T19:00:47.524Z,4.90
2023-04-23T19:03:25.930Z,6.00
2023-04-23T19:05:58.991Z,4.75
2023-04-23T19:08:29.761Z,5.13
2023-04-23T19:11:02.186Z,4.80
2023-04-23T19:13:33.760Z,6.05
2023-04-23T19:16:03.281Z,11.10
2023-04-23T19:18:34.604Z,6.13
2023-04-23T19:21:07.025Z,6.05
2023-04-23T19:23:36.630Z,4.90
2023-04-23T19:26:09.561Z,5.68
2023-04-23T19:28:38.853Z,5.93
2023-04-23T19:31:08.234Z,5.93
2023-04-23T19:33:39.560Z,6.25
2023-04-23T19:36:09.366Z,5.03
2023-04-23T19:38:38.626Z,5.47
2023-04-23T19:41:07.833Z,5.38
2023-04-23T19:43:36.864Z,5.63
2023-04-23T19:46:09.044Z,4.78
2023-04-23T19:48:39.581Z,6.35
2023-04-23T19:51:12.005Z,5.55
2023-04-23T19:53:44.018Z,5.95
2023-04-23T19:56:15.265Z,5.50
2023-04-23T19:58:44.376Z,5.53
2023-04-23T20:01:13.759Z,5.72
2023-04-23T20:03:47.792Z,6.07
2023-04-23T20:06:17.253Z,6.05
2023-04-23T20:09:06.060Z,6.05
2023-04-23T20:11:35.670Z,5.65
2023-04-23T20:14:07.497Z,5.93
2023-04-23T20:16:39.811Z,6.63
2023-04-23T20:19:11.290Z,6.72
2023-04-23T20:21:41.465Z,5.85
2023-04-23T20:24:11.861Z,6.28
2023-04-23T20:26:42.378Z,6.97
2023-04-23T20:29:11.663Z,6.35
2023-04-23T20:31:42.752Z,6.25
2023-04-23T20:34:13.048Z,7.38
2023-04-23T20:36:42.063Z,6.68
2023-04-23T20:39:11.144Z,7.43
2023-04-23T20:41:40.725Z,7.22
2023-04-23T20:44:17.730Z,6.82
2023-04-23T20:46:47.509Z,7.78
2023-04-23T20:49:18.430Z,6.18
2023-04-23T20:51:50.966Z,6.75
2023-04-23T20:54:20.640Z,6.93
2023-04-23T20:56:54.295Z,7.45
2023-04-23T20:59:24.104Z,6.32
2023-04-23T21:01:53.381Z,6.53
2023-04-23T21:04:24.120Z,6.07
2023-04-23T21:06:53.286Z,6.63
2023-04-23T21:09:22.488Z,8.90
2023-04-23T21:11:53.961Z,6.50
2023-04-23T21:14:23.155Z,7.93
2023-04-23T21:16:53.271Z,6.53
2023-04-23T21:19:23.859Z,8.18
2023-04-23T21:21:52.985Z,7.32
2023-04-23T21:24:22.081Z,7.63
2023-04-23T21:26:51.706Z,6.65
2023-04-23T21:29:20.633Z,7.10
2023-04-23T21:31:54.579Z,6.28
2023-04-23T21:34:25.015Z,6.63
2023-04-23T21:36:53.949Z,7.55
2023-04-23T21:39:23.109Z,6.57
2023-04-23T21:41:53.242Z,6.85
2023-04-23T21:44:22.596Z,6.43
2023-04-23T21:46:51.628Z,6.13
2023-04-23T21:49:22.464Z,6.63
2023-04-23T21:51:54.630Z,6.45
2023-04-23T21:54:23.789Z,6.85
2023-04-23T21:56:52.846Z,7.07
2023-04-23T21:59:23.340Z,5.68
2023-04-23T22:01:52.469Z,6.20
2023-04-23T22:04:22.692Z,5.90
2023-04-23T22:06:53.987Z,6.85
2023-04-23T22:09:23.262Z,6.63
2023-04-23T22:12:01.908Z,7.05
2023-04-23T22:14:32.306Z,6.65
2023-04-23T22:17:02.182Z,7.35
2023-04-23T22:19:32.275Z,7.15
2023-04-23T22:22:02.496Z,6.75
2023-04-23T22:24:34.090Z,7.10
2023-04-23T22:27:03.294Z,8.10
2023-04-23T22:29:32.321Z,7.65
2023-04-23T22:32:01.422Z,7.18
2023-04-23T22:34:30.567Z,7.03
2023-04-23T22:36:59.690Z,7.00
2023-04-23T22:39:30.137Z,8.52
2023-04-23T22:41:59.083Z,8.55
2023-04-23T22:44:28.302Z,7.50
2023-04-23T22:46:58.088Z,8.65
2023-04-23T22:49:27.560Z,7.95
2023-04-23T22:51:59.337Z,9.00
2023-04-23T22:54:29.789Z,7.65
2023-04-23T22:56:59.147Z,9.00
2023-04-23T22:59:27.983Z,8.25
2023-04-23T23:01:56.922Z,7.15
2023-04-23T23:04:26.201Z,8.65
2023-04-23T23:06:55.509Z,8.43
2023-04-23T23:09:28.332Z,7.97
2023-04-23T23:11:58.905Z,8.60
2023-04-23T23:14:29.016Z,9.05
2023-04-23T23:16:58.476Z,7.63
2023-04-23T23:19:28.071Z,7.68
2023-04-23T23:21:57.766Z,8.32
2023-04-23T23:24:26.981Z,7.72
2023-04-23T23:26:55.950Z,7.93
2023-04-23T23:29:28.725Z,7.82
2023-04-23T23:31:58.686Z,7.50
2023-04-23T23:34:30.469Z,7.30
2023-04-23T23:36:59.726Z,7.68
2023-04-23T23:39:29.118Z,6.68
2023-04-23T23:42:01.628Z,7.03
2023-04-23T23:44:32.272Z,6.65
2023-04-23T23:47:01.897Z,6.38
2023-04-23T23:49:33.721Z,6.97
2023-04-23T23:52:03.942Z,7.00
2023-04-23T23:54:33.102Z,7.35
2023-04-23T23:57:02.432Z,6.90
2023-04-23T23:59:32.899Z,6.05
